sensor_id;sensor_type;location;lat;lon;timestamp;P1;durP1;ratioP1;P2;durP2;ratioP2
52786;SDS011;38661;53.152;5.846;2022-09-09T00:00:12;12.50;;;8.02;;
52786;SDS011;38661;53.152;5.846;2022-09-09T00:02:40;16.52;;;10.38;;
52786;SDS011;38661;53.152;5.846;2022-09-09T00:05:30;12.68;;;9.70;;
52786;SDS011;38661;53.152;5.846;2022-09-09T00:08:20;15.45;;;10.38;;
52786;SDS011;38661;53.152;5.846;2022-09-09T00:10:58;11.60;;;10.40;;
52786;SDS011;38661;53.152;5.846;2022-09-09T00:16:25;13.60;;;9.98;;
52786;SDS011;38661;53.152;5.846;2022-09-09T00:21:33;13.93;;;10.48;;
52786;SDS011;38661;53.152;5.846;2022-09-09T00:24:04;10.88;;;8.88;;
52786;SDS011;38661;53.152;5.846;2022-09-09T00:29:25;11.15;;;9.98;;
52786;SDS011;38661;53.152;5.846;2022-09-09T00:31:56;14.35;;;11.63;;
52786;SDS011;38661;53.152;5.846;2022-09-09T00:34:28;14.13;;;10.32;;
52786;SDS011;38661;53.152;5.846;2022-09-09T00:36:56;12.73;;;9.43;;
52786;SDS011;38661;53.152;5.846;2022-09-09T00:39:27;12.95;;;10.15;;
52786;SDS011;38661;53.152;5.846;2022-09-09T00:42:07;12.57;;;10.00;;
52786;SDS011;38661;53.152;5.846;2022-09-09T00:44:42;15.68;;;11.15;;
52786;SDS011;38661;53.152;5.846;2022-09-09T00:50:15;9.45;;;6.78;;
52786;SDS011;38661;53.152;5.846;2022-09-09T00:58:30;14.35;;;10.15;;
52786;SDS011;38661;53.152;5.846;2022-09-09T01:01:04;14.13;;;10.13;;
52786;SDS011;38661;53.152;5.846;2022-09-09T01:03:45;11.30;;;8.20;;
52786;SDS011;38661;53.152;5.846;2022-09-09T01:17:01;11.60;;;9.25;;
52786;SDS011;38661;53.152;5.846;2022-09-09T01:22:22;12.38;;;10.30;;
52786;SDS011;38661;53.152;5.846;2022-09-09T01:28:10;15.27;;;10.20;;
52786;SDS011;38661;53.152;5.846;2022-09-09T01:30:50;11.52;;;9.18;;
52786;SDS011;38661;53.152;5.846;2022-09-09T01:33:16;12.40;;;9.57;;
52786;SDS011;38661;53.152;5.846;2022-09-09T01:38:20;12.43;;;8.75;;
52786;SDS011;38661;53.152;5.846;2022-09-09T01:40:47;13.20;;;9.48;;
52786;SDS011;38661;53.152;5.846;2022-09-09T01:43:14;15.85;;;10.95;;
52786;SDS011;38661;53.152;5.846;2022-09-09T01:45:40;13.52;;;9.75;;
52786;SDS011;38661;53.152;5.846;2022-09-09T01:48:07;12.82;;;9.98;;
52786;SDS011;38661;53.152;5.846;2022-09-09T01:50:33;11.93;;;7.88;;
52786;SDS011;38661;53.152;5.846;2022-09-09T01:52:59;15.07;;;9.40;;
52786;SDS011;38661;53.152;5.846;2022-09-09T01:55:37;13.13;;;9.57;;
52786;SDS011;38661;53.152;5.846;2022-09-09T01:58:29;12.05;;;8.38;;
52786;SDS011;38661;53.152;5.846;2022-09-09T02:01:05;11.25;;;8.60;;
52786;SDS011;38661;53.152;5.846;2022-09-09T02:03:38;14.05;;;9.38;;
52786;SDS011;38661;53.152;5.846;2022-09-09T02:08:53;11.25;;;9.07;;
52786;SDS011;38661;53.152;5.846;2022-09-09T02:11:22;15.57;;;10.52;;
52786;SDS011;38661;53.152;5.846;2022-09-09T02:13:51;12.40;;;10.07;;
52786;SDS011;38661;53.152;5.846;2022-09-09T02:16:37;9.50;;;8.30;;
52786;SDS011;38661;53.152;5.846;2022-09-09T02:21:50;11.73;;;9.80;;
52786;SDS011;38661;53.152;5.846;2022-09-09T02:24:18;11.98;;;9.45;;
52786;SDS011;38661;53.152;5.846;2022-09-09T02:26:44;7.57;;;6.75;;
52786;SDS011;38661;53.152;5.846;2022-09-09T02:29:14;13.70;;;9.32;;
52786;SDS011;38661;53.152;5.846;2022-09-09T02:31:43;10.65;;;9.55;;
52786;SDS011;38661;53.152;5.846;2022-09-09T02:34:10;12.10;;;9.75;;
52786;SDS011;38661;53.152;5.846;2022-09-09T02:36:39;12.93;;;10.15;;
52786;SDS011;38661;53.152;5.846;2022-09-09T02:39:07;11.30;;;8.45;;
52786;SDS011;38661;53.152;5.846;2022-09-09T02:41:35;9.93;;;7.70;;
52786;SDS011;38661;53.152;5.846;2022-09-09T02:44:13;12.13;;;9.07;;
52786;SDS011;38661;53.152;5.846;2022-09-09T02:52:06;12.15;;;8.45;;
52786;SDS011;38661;53.152;5.846;2022-09-09T02:54:34;14.73;;;10.52;;
52786;SDS011;38661;53.152;5.846;2022-09-09T02:59:41;15.68;;;9.45;;
52786;SDS011;38661;53.152;5.846;2022-09-09T03:02:09;13.13;;;10.63;;
52786;SDS011;38661;53.152;5.846;2022-09-09T03:04:37;11.80;;;9.57;;
52786;SDS011;38661;53.152;5.846;2022-09-09T03:07:03;13.50;;;9.75;;
52786;SDS011;38661;53.152;5.846;2022-09-09T03:09:29;12.55;;;9.10;;
52786;SDS011;38661;53.152;5.846;2022-09-09T03:11:55;11.63;;;7.68;;
52786;SDS011;38661;53.152;5.846;2022-09-09T03:14:21;13.15;;;9.63;;
52786;SDS011;38661;53.152;5.846;2022-09-09T03:16:53;11.27;;;9.32;;
52786;SDS011;38661;53.152;5.846;2022-09-09T03:19:20;13.18;;;9.38;;
52786;SDS011;38661;53.152;5.846;2022-09-09T03:21:46;11.52;;;9.27;;
52786;SDS011;38661;53.152;5.846;2022-09-09T03:24:12;10.25;;;8.48;;
52786;SDS011;38661;53.152;5.846;2022-09-09T03:26:39;8.38;;;7.53;;
52786;SDS011;38661;53.152;5.846;2022-09-09T03:29:06;11.45;;;7.65;;
52786;SDS011;38661;53.152;5.846;2022-09-09T03:31:33;8.88;;;7.97;;
52786;SDS011;38661;53.152;5.846;2022-09-09T03:33:59;8.73;;;7.13;;
52786;SDS011;38661;53.152;5.846;2022-09-09T03:36:25;10.02;;;8.55;;
52786;SDS011;38661;53.152;5.846;2022-09-09T03:38:52;9.20;;;7.40;;
52786;SDS011;38661;53.152;5.846;2022-09-09T03:41:19;8.23;;;7.32;;
52786;SDS011;38661;53.152;5.846;2022-09-09T03:43:47;9.23;;;7.15;;
52786;SDS011;38661;53.152;5.846;2022-09-09T03:46:12;10.23;;;7.32;;
52786;SDS011;38661;53.152;5.846;2022-09-09T03:48:38;13.77;;;8.82;;
52786;SDS011;38661;53.152;5.846;2022-09-09T03:51:04;8.30;;;7.50;;
52786;SDS011;38661;53.152;5.846;2022-09-09T03:53:29;11.32;;;7.40;;
52786;SDS011;38661;53.152;5.846;2022-09-09T03:55:56;7.82;;;5.47;;
52786;SDS011;38661;53.152;5.846;2022-09-09T03:58:24;12.80;;;7.20;;
52786;SDS011;38661;53.152;5.846;2022-09-09T04:01:11;12.40;;;7.05;;
52786;SDS011;38661;53.152;5.846;2022-09-09T04:03:42;10.85;;;6.93;;
52786;SDS011;38661;53.152;5.846;2022-09-09T04:06:10;11.15;;;6.60;;
52786;SDS011;38661;53.152;5.846;2022-09-09T04:08:38;9.02;;;6.45;;
52786;SDS011;38661;53.152;5.846;2022-09-09T04:11:05;9.63;;;6.95;;
52786;SDS011;38661;53.152;5.846;2022-09-09T04:13:35;10.05;;;6.90;;
52786;SDS011;38661;53.152;5.846;2022-09-09T04:16:05;10.57;;;7.55;;
52786;SDS011;38661;53.152;5.846;2022-09-09T04:18:31;11.70;;;7.43;;
52786;SDS011;38661;53.152;5.846;2022-09-09T04:20:57;11.65;;;7.32;;
52786;SDS011;38661;53.152;5.846;2022-09-09T04:23:24;9.60;;;6.60;;
52786;SDS011;38661;53.152;5.846;2022-09-09T04:25:52;9.27;;;6.78;;
52786;SDS011;38661;53.152;5.846;2022-09-09T04:28:19;12.38;;;7.28;;
52786;SDS011;38661;53.152;5.846;2022-09-09T04:30:46;10.48;;;7.05;;
52786;SDS011;38661;53.152;5.846;2022-09-09T04:33:12;12.13;;;8.15;;
52786;SDS011;38661;53.152;5.846;2022-09-09T04:35:39;12.30;;;7.75;;
52786;SDS011;38661;53.152;5.846;2022-09-09T04:38:08;12.48;;;8.30;;
52786;SDS011;38661;53.152;5.846;2022-09-09T04:40:34;8.40;;;5.85;;
52786;SDS011;38661;53.152;5.846;2022-09-09T04:43:01;13.65;;;8.10;;
52786;SDS011;38661;53.152;5.846;2022-09-09T04:45:28;10.25;;;7.53;;
52786;SDS011;38661;53.152;5.846;2022-09-09T04:47:54;9.43;;;8.30;;
52786;SDS011;38661;53.152;5.846;2022-09-09T04:50:20;14.27;;;7.75;;
52786;SDS011;38661;53.152;5.846;2022-09-09T04:52:45;10.25;;;7.50;;
52786;SDS011;38661;53.152;5.846;2022-09-09T04:55:11;9.25;;;6.07;;
52786;SDS011;38661;53.152;5.846;2022-09-09T04:57:38;8.05;;;6.97;;
52786;SDS011;38661;53.152;5.846;2022-09-09T05:00:04;10.07;;;7.20;;
52786;SDS011;38661;53.152;5.846;2022-09-09T05:02:31;8.80;;;7.22;;
52786;SDS011;38661;53.152;5.846;2022-09-09T05:04:57;12.88;;;8.20;;
52786;SDS011;38661;53.152;5.846;2022-09-09T05:07:23;11.52;;;7.40;;
52786;SDS011;38661;53.152;5.846;2022-09-09T05:09:51;14.57;;;8.35;;
52786;SDS011;38661;53.152;5.846;2022-09-09T05:12:17;9.23;;;7.40;;
52786;SDS011;38661;53.152;5.846;2022-09-09T05:14:43;10.60;;;6.15;;
52786;SDS011;38661;53.152;5.846;2022-09-09T05:17:09;10.38;;;7.03;;
52786;SDS011;38661;53.152;5.846;2022-09-09T05:19:35;10.35;;;8.35;;
52786;SDS011;38661;53.152;5.846;2022-09-09T05:22:00;13.10;;;8.68;;
52786;SDS011;38661;53.152;5.846;2022-09-09T05:24:26;12.05;;;8.60;;
52786;SDS011;38661;53.152;5.846;2022-09-09T05:26:52;13.70;;;9.48;;
52786;SDS011;38661;53.152;5.846;2022-09-09T05:29:17;13.25;;;8.18;;
52786;SDS011;38661;53.152;5.846;2022-09-09T05:31:46;13.90;;;9.40;;
52786;SDS011;38661;53.152;5.846;2022-09-09T05:34:12;12.65;;;9.13;;
52786;SDS011;38661;53.152;5.846;2022-09-09T05:36:38;11.57;;;9.23;;
52786;SDS011;38661;53.152;5.846;2022-09-09T05:39:03;12.93;;;9.45;;
52786;SDS011;38661;53.152;5.846;2022-09-09T05:41:29;12.93;;;10.23;;
52786;SDS011;38661;53.152;5.846;2022-09-09T05:43:56;11.68;;;9.50;;
52786;SDS011;38661;53.152;5.846;2022-09-09T05:46:24;15.55;;;11.23;;
52786;SDS011;38661;53.152;5.846;2022-09-09T05:48:51;14.20;;;10.00;;
52786;SDS011;38661;53.152;5.846;2022-09-09T05:51:19;15.20;;;10.65;;
52786;SDS011;38661;53.152;5.846;2022-09-09T05:53:47;16.58;;;10.38;;
52786;SDS011;38661;53.152;5.846;2022-09-09T05:56:14;12.63;;;10.68;;
52786;SDS011;38661;53.152;5.846;2022-09-09T05:58:44;16.92;;;11.38;;
52786;SDS011;38661;53.152;5.846;2022-09-09T06:01:13;13.90;;;10.88;;
52786;SDS011;38661;53.152;5.846;2022-09-09T06:03:41;14.13;;;9.18;;
52786;SDS011;38661;53.152;5.846;2022-09-09T06:06:09;15.60;;;11.88;;
52786;SDS011;38661;53.152;5.846;2022-09-09T06:08:41;15.05;;;12.15;;
52786;SDS011;38661;53.152;5.846;2022-09-09T06:13:36;18.30;;;11.10;;
52786;SDS011;38661;53.152;5.846;2022-09-09T06:16:05;11.88;;;9.48;;
52786;SDS011;38661;53.152;5.846;2022-09-09T06:18:33;16.13;;;10.63;;
52786;SDS011;38661;53.152;5.846;2022-09-09T06:21:02;15.40;;;10.40;;
52786;SDS011;38661;53.152;5.846;2022-09-09T06:23:30;14.40;;;9.52;;
52786;SDS011;38661;53.152;5.846;2022-09-09T06:26:06;15.02;;;11.82;;
52786;SDS011;38661;53.152;5.846;2022-09-09T06:28:35;14.40;;;11.60;;
52786;SDS011;38661;53.152;5.846;2022-09-09T06:31:03;14.98;;;11.95;;
52786;SDS011;38661;53.152;5.846;2022-09-09T06:33:31;16.40;;;11.40;;
52786;SDS011;38661;53.152;5.846;2022-09-09T06:35:59;18.05;;;12.90;;
52786;SDS011;38661;53.152;5.846;2022-09-09T06:38:26;16.63;;;11.35;;
52786;SDS011;38661;53.152;5.846;2022-09-09T06:40:53;13.20;;;11.77;;
52786;SDS011;38661;53.152;5.846;2022-09-09T06:43:23;14.60;;;10.52;;
52786;SDS011;38661;53.152;5.846;2022-09-09T06:48:44;13.05;;;10.32;;
52786;SDS011;38661;53.152;5.846;2022-09-09T06:51:14;13.00;;;11.38;;
52786;SDS011;38661;53.152;5.846;2022-09-09T06:53:43;15.05;;;10.32;;
52786;SDS011;38661;53.152;5.846;2022-09-09T06:58:39;15.93;;;10.98;;
52786;SDS011;38661;53.152;5.846;2022-09-09T07:01:12;16.23;;;10.70;;
52786;SDS011;38661;53.152;5.846;2022-09-09T07:03:40;15.38;;;10.82;;
52786;SDS011;38661;53.152;5.846;2022-09-09T07:06:08;12.82;;;10.02;;
52786;SDS011;38661;53.152;5.846;2022-09-09T07:08:38;13.27;;;10.35;;
52786;SDS011;38661;53.152;5.846;2022-09-09T07:11:05;15.20;;;9.52;;
52786;SDS011;38661;53.152;5.846;2022-09-09T07:13:32;13.52;;;9.98;;
52786;SDS011;38661;53.152;5.846;2022-09-09T07:16:07;9.02;;;7.53;;
52786;SDS011;38661;53.152;5.846;2022-09-09T07:18:36;12.50;;;9.90;;
52786;SDS011;38661;53.152;5.846;2022-09-09T07:21:02;12.18;;;9.70;;
52786;SDS011;38661;53.152;5.846;2022-09-09T07:23:29;14.77;;;9.13;;
52786;SDS011;38661;53.152;5.846;2022-09-09T07:25:58;11.43;;;8.73;;
52786;SDS011;38661;53.152;5.846;2022-09-09T07:28:24;16.00;;;9.88;;
52786;SDS011;38661;53.152;5.846;2022-09-09T07:30:58;13.35;;;9.40;;
52786;SDS011;38661;53.152;5.846;2022-09-09T07:33:29;11.75;;;9.90;;
52786;SDS011;38661;53.152;5.846;2022-09-09T07:36:09;12.23;;;8.80;;
52786;SDS011;38661;53.152;5.846;2022-09-09T07:38:39;10.38;;;8.57;;
52786;SDS011;38661;53.152;5.846;2022-09-09T07:41:11;10.32;;;8.15;;
52786;SDS011;38661;53.152;5.846;2022-09-09T07:43:40;11.50;;;8.43;;
52786;SDS011;38661;53.152;5.846;2022-09-09T07:46:07;11.88;;;8.45;;
52786;SDS011;38661;53.152;5.846;2022-09-09T07:48:34;14.25;;;8.77;;
52786;SDS011;38661;53.152;5.846;2022-09-09T07:51:10;10.82;;;8.52;;
52786;SDS011;38661;53.152;5.846;2022-09-09T07:53:45;14.10;;;8.82;;
52786;SDS011;38661;53.152;5.846;2022-09-09T07:56:15;10.27;;;8.63;;
52786;SDS011;38661;53.152;5.846;2022-09-09T07:58:42;13.32;;;8.10;;
52786;SDS011;38661;53.152;5.846;2022-09-09T08:01:18;10.25;;;7.03;;
52786;SDS011;38661;53.152;5.846;2022-09-09T08:03:51;9.55;;;7.63;;
52786;SDS011;38661;53.152;5.846;2022-09-09T08:06:26;12.13;;;7.55;;
52786;SDS011;38661;53.152;5.846;2022-09-09T08:08:53;11.70;;;7.25;;
52786;SDS011;38661;53.152;5.846;2022-09-09T08:11:20;9.30;;;7.05;;
52786;SDS011;38661;53.152;5.846;2022-09-09T08:13:48;12.07;;;7.05;;
52786;SDS011;38661;53.152;5.846;2022-09-09T08:16:19;9.98;;;7.30;;
52786;SDS011;38661;53.152;5.846;2022-09-09T08:18:47;8.98;;;7.95;;
52786;SDS011;38661;53.152;5.846;2022-09-09T08:21:15;10.07;;;6.97;;
52786;SDS011;38661;53.152;5.846;2022-09-09T08:23:50;11.82;;;7.18;;
52786;SDS011;38661;53.152;5.846;2022-09-09T08:26:19;8.73;;;7.05;;
52786;SDS011;38661;53.152;5.846;2022-09-09T08:29:05;12.35;;;7.43;;
52786;SDS011;38661;53.152;5.846;2022-09-09T08:31:39;12.00;;;8.15;;
52786;SDS011;38661;53.152;5.846;2022-09-09T08:34:07;10.38;;;7.50;;
52786;SDS011;38661;53.152;5.846;2022-09-09T08:36:35;10.70;;;6.50;;
52786;SDS011;38661;53.152;5.846;2022-09-09T08:39:04;11.35;;;6.53;;
52786;SDS011;38661;53.152;5.846;2022-09-09T08:53:24;10.27;;;6.93;;
52786;SDS011;38661;53.152;5.846;2022-09-09T08:58:11;8.20;;;5.10;;
52786;SDS011;38661;53.152;5.846;2022-09-09T09:03:52;10.80;;;5.00;;
52786;SDS011;38661;53.152;5.846;2022-09-09T09:16:52;9.93;;;5.05;;
52786;SDS011;38661;53.152;5.846;2022-09-09T09:19:23;9.60;;;4.90;;
52786;SDS011;38661;53.152;5.846;2022-09-09T09:24:27;9.15;;;5.30;;
52786;SDS011;38661;53.152;5.846;2022-09-09T09:27:18;9.10;;;5.82;;
52786;SDS011;38661;53.152;5.846;2022-09-09T09:29:58;9.65;;;5.00;;
52786;SDS011;38661;53.152;5.846;2022-09-09T09:32:26;12.27;;;5.03;;
52786;SDS011;38661;53.152;5.846;2022-09-09T09:34:56;8.82;;;4.55;;
52786;SDS011;38661;53.152;5.846;2022-09-09T09:37:28;7.25;;;4.95;;
52786;SDS011;38661;53.152;5.846;2022-09-09T09:39:56;10.02;;;4.82;;
52786;SDS011;38661;53.152;5.846;2022-09-09T09:42:32;9.88;;;3.95;;
52786;SDS011;38661;53.152;5.846;2022-09-09T09:45:07;10.50;;;4.72;;
52786;SDS011;38661;53.152;5.846;2022-09-09T09:47:45;9.48;;;4.60;;
52786;SDS011;38661;53.152;5.846;2022-09-09T09:50:18;8.52;;;3.90;;
52786;SDS011;38661;53.152;5.846;2022-09-09T09:52:53;5.93;;;3.70;;
52786;SDS011;38661;53.152;5.846;2022-09-09T09:55:23;10.10;;;3.03;;
52786;SDS011;38661;53.152;5.846;2022-09-09T09:57:50;6.57;;;2.88;;
52786;SDS011;38661;53.152;5.846;2022-09-09T10:02:45;8.70;;;3.10;;
52786;SDS011;38661;53.152;5.846;2022-09-09T10:05:16;7.32;;;3.13;;
52786;SDS011;38661;53.152;5.846;2022-09-09T10:08:03;9.02;;;3.78;;
52786;SDS011;38661;53.152;5.846;2022-09-09T10:13:26;6.90;;;2.30;;
52786;SDS011;38661;53.152;5.846;2022-09-09T10:16:19;9.68;;;3.22;;
52786;SDS011;38661;53.152;5.846;2022-09-09T10:19:01;9.93;;;2.72;;
52786;SDS011;38661;53.152;5.846;2022-09-09T10:27:28;7.03;;;2.13;;
52786;SDS011;38661;53.152;5.846;2022-09-09T10:30:17;7.72;;;2.22;;
52786;SDS011;38661;53.152;5.846;2022-09-09T10:33:08;9.02;;;2.25;;
52786;SDS011;38661;53.152;5.846;2022-09-09T10:35:57;8.75;;;2.58;;
52786;SDS011;38661;53.152;5.846;2022-09-09T10:38:47;8.27;;;2.88;;
52786;SDS011;38661;53.152;5.846;2022-09-09T10:41:19;8.50;;;2.40;;
52786;SDS011;38661;53.152;5.846;2022-09-09T10:55:17;8.10;;;2.38;;
52786;SDS011;38661;53.152;5.846;2022-09-09T11:00:31;10.80;;;3.10;;
52786;SDS011;38661;53.152;5.846;2022-09-09T11:03:05;8.68;;;2.33;;
52786;SDS011;38661;53.152;5.846;2022-09-09T11:08:15;7.72;;;2.17;;
52786;SDS011;38661;53.152;5.846;2022-09-09T11:21:53;5.88;;;2.00;;
52786;SDS011;38661;53.152;5.846;2022-09-09T11:24:25;6.70;;;2.05;;
52786;SDS011;38661;53.152;5.846;2022-09-09T11:41:05;5.97;;;1.92;;
52786;SDS011;38661;53.152;5.846;2022-09-09T11:44:08;7.47;;;2.35;;
52786;SDS011;38661;53.152;5.846;2022-09-09T11:46:36;7.18;;;2.90;;
52786;SDS011;38661;53.152;5.846;2022-09-09T11:49:05;7.32;;;2.20;;
52786;SDS011;38661;53.152;5.846;2022-09-09T11:51:32;9.05;;;2.13;;
52786;SDS011;38661;53.152;5.846;2022-09-09T11:56:47;6.55;;;2.40;;
52786;SDS011;38661;53.152;5.846;2022-09-09T11:59:20;7.80;;;2.40;;
52786;SDS011;38661;53.152;5.846;2022-09-09T12:02:13;6.07;;;2.10;;
52786;SDS011;38661;53.152;5.846;2022-09-09T12:12:51;16.75;;;3.28;;
52786;SDS011;38661;53.152;5.846;2022-09-09T12:17:49;8.23;;;2.63;;
52786;SDS011;38661;53.152;5.846;2022-09-09T12:20:17;8.88;;;2.40;;
52786;SDS011;38661;53.152;5.846;2022-09-09T12:28:17;9.32;;;2.38;;
52786;SDS011;38661;53.152;5.846;2022-09-09T12:30:52;5.65;;;2.25;;
52786;SDS011;38661;53.152;5.846;2022-09-09T12:33:33;5.97;;;2.33;;
52786;SDS011;38661;53.152;5.846;2022-09-09T12:36:04;8.30;;;3.40;;
52786;SDS011;38661;53.152;5.846;2022-09-09T12:38:38;7.60;;;2.70;;
52786;SDS011;38661;53.152;5.846;2022-09-09T12:41:05;13.73;;;3.75;;
52786;SDS011;38661;53.152;5.846;2022-09-09T12:43:44;6.63;;;2.63;;
52786;SDS011;38661;53.152;5.846;2022-09-09T12:46:12;6.28;;;2.97;;
52786;SDS011;38661;53.152;5.846;2022-09-09T12:48:51;9.25;;;2.58;;
52786;SDS011;38661;53.152;5.846;2022-09-09T12:51:39;11.20;;;3.58;;
52786;SDS011;38661;53.152;5.846;2022-09-09T12:54:12;7.95;;;2.65;;
52786;SDS011;38661;53.152;5.846;2022-09-09T12:56:44;7.03;;;2.88;;
52786;SDS011;38661;53.152;5.846;2022-09-09T12:59:22;7.80;;;2.58;;
52786;SDS011;38661;53.152;5.846;2022-09-09T13:01:56;6.93;;;2.28;;
52786;SDS011;38661;53.152;5.846;2022-09-09T13:04:23;4.45;;;2.30;;
52786;SDS011;38661;53.152;5.846;2022-09-09T13:06:49;6.43;;;2.40;;
52786;SDS011;38661;53.152;5.846;2022-09-09T13:09:17;8.05;;;2.40;;
52786;SDS011;38661;53.152;5.846;2022-09-09T13:11:44;12.60;;;4.53;;
52786;SDS011;38661;53.152;5.846;2022-09-09T13:14:35;9.25;;;2.20;;
52786;SDS011;38661;53.152;5.846;2022-09-09T13:17:03;3.08;;;1.42;;
52786;SDS011;38661;53.152;5.846;2022-09-09T13:19:35;3.72;;;1.63;;
52786;SDS011;38661;53.152;5.846;2022-09-09T13:22:23;4.78;;;1.50;;
52786;SDS011;38661;53.152;5.846;2022-09-09T13:25:13;8.48;;;1.67;;
52786;SDS011;38661;53.152;5.846;2022-09-09T13:28:03;6.18;;;1.95;;
52786;SDS011;38661;53.152;5.846;2022-09-09T13:30:34;3.38;;;1.40;;
52786;SDS011;38661;53.152;5.846;2022-09-09T13:33:24;7.10;;;2.00;;
52786;SDS011;38661;53.152;5.846;2022-09-09T13:35:54;8.68;;;2.15;;
52786;SDS011;38661;53.152;5.846;2022-09-09T13:38:22;9.85;;;1.80;;
52786;SDS011;38661;53.152;5.846;2022-09-09T13:41:08;5.00;;;1.80;;
52786;SDS011;38661;53.152;5.846;2022-09-09T13:43:42;7.18;;;2.30;;
52786;SDS011;38661;53.152;5.846;2022-09-09T13:51:35;9.15;;;3.05;;
52786;SDS011;38661;53.152;5.846;2022-09-09T13:54:04;11.40;;;3.72;;
52786;SDS011;38661;53.152;5.846;2022-09-09T13:56:32;16.85;;;4.35;;
52786;SDS011;38661;53.152;5.846;2022-09-09T13:58:58;3.50;;;1.77;;
52786;SDS011;38661;53.152;5.846;2022-09-09T14:01:24;4.20;;;2.25;;
52786;SDS011;38661;53.152;5.846;2022-09-09T14:03:50;3.33;;;1.70;;
52786;SDS011;38661;53.152;5.846;2022-09-09T14:06:18;4.63;;;2.10;;
52786;SDS011;38661;53.152;5.846;2022-09-09T14:08:47;4.25;;;1.88;;
52786;SDS011;38661;53.152;5.846;2022-09-09T14:11:15;3.80;;;2.13;;
52786;SDS011;38661;53.152;5.846;2022-09-09T14:13:41;8.55;;;3.10;;
52786;SDS011;38661;53.152;5.846;2022-09-09T14:16:07;4.95;;;1.95;;
52786;SDS011;38661;53.152;5.846;2022-09-09T14:18:32;5.75;;;2.30;;
52786;SDS011;38661;53.152;5.846;2022-09-09T14:20:59;4.82;;;1.75;;
52786;SDS011;38661;53.152;5.846;2022-09-09T14:23:24;5.00;;;2.05;;
52786;SDS011;38661;53.152;5.846;2022-09-09T14:25:50;5.03;;;2.13;;
52786;SDS011;38661;53.152;5.846;2022-09-09T14:28:17;5.47;;;1.92;;
52786;SDS011;38661;53.152;5.846;2022-09-09T14:30:43;3.15;;;2.13;;
52786;SDS011;38661;53.152;5.846;2022-09-09T14:33:13;5.10;;;1.70;;
52786;SDS011;38661;53.152;5.846;2022-09-09T14:35:40;4.65;;;1.88;;
52786;SDS011;38661;53.152;5.846;2022-09-09T14:38:07;4.43;;;1.60;;
52786;SDS011;38661;53.152;5.846;2022-09-09T14:40:34;3.15;;;1.83;;
52786;SDS011;38661;53.152;5.846;2022-09-09T14:43:01;3.72;;;1.70;;
52786;SDS011;38661;53.152;5.846;2022-09-09T14:45:28;5.60;;;1.73;;
52786;SDS011;38661;53.152;5.846;2022-09-09T14:47:53;4.65;;;1.80;;
52786;SDS011;38661;53.152;5.846;2022-09-09T14:50:20;5.57;;;2.00;;
52786;SDS011;38661;53.152;5.846;2022-09-09T14:52:46;6.57;;;2.08;;
52786;SDS011;38661;53.152;5.846;2022-09-09T14:55:13;5.47;;;2.25;;
52786;SDS011;38661;53.152;5.846;2022-09-09T14:57:40;6.55;;;2.40;;
52786;SDS011;38661;53.152;5.846;2022-09-09T15:00:06;3.95;;;1.77;;
52786;SDS011;38661;53.152;5.846;2022-09-09T15:02:33;4.25;;;1.75;;
52786;SDS011;38661;53.152;5.846;2022-09-09T15:04:59;5.32;;;2.17;;
52786;SDS011;38661;53.152;5.846;2022-09-09T15:07:25;8.38;;;3.55;;
52786;SDS011;38661;53.152;5.846;2022-09-09T15:09:52;9.52;;;3.63;;
52786;SDS011;38661;53.152;5.846;2022-09-09T15:12:18;9.30;;;3.50;;
52786;SDS011;38661;53.152;5.846;2022-09-09T15:14:44;9.00;;;4.40;;
52786;SDS011;38661;53.152;5.846;2022-09-09T15:17:10;6.55;;;3.58;;
52786;SDS011;38661;53.152;5.846;2022-09-09T15:19:36;5.88;;;4.22;;
52786;SDS011;38661;53.152;5.846;2022-09-09T15:22:02;7.75;;;4.60;;
52786;SDS011;38661;53.152;5.846;2022-09-09T15:24:32;6.88;;;4.72;;
52786;SDS011;38661;53.152;5.846;2022-09-09T15:26:58;8.18;;;4.43;;
52786;SDS011;38661;53.152;5.846;2022-09-09T15:29:25;7.03;;;4.82;;
52786;SDS011;38661;53.152;5.846;2022-09-09T15:31:50;7.93;;;5.20;;
52786;SDS011;38661;53.152;5.846;2022-09-09T15:34:18;7.15;;;5.28;;
52786;SDS011;38661;53.152;5.846;2022-09-09T15:36:44;6.97;;;4.97;;
52786;SDS011;38661;53.152;5.846;2022-09-09T15:39:17;8.18;;;5.43;;
52786;SDS011;38661;53.152;5.846;2022-09-09T15:41:46;7.65;;;5.55;;
52786;SDS011;38661;53.152;5.846;2022-09-09T15:44:14;8.43;;;4.95;;
52786;SDS011;38661;53.152;5.846;2022-09-09T15:46:50;8.07;;;5.55;;
52786;SDS011;38661;53.152;5.846;2022-09-09T15:49:22;7.97;;;5.50;;
52786;SDS011;38661;53.152;5.846;2022-09-09T15:51:54;6.25;;;4.45;;
52786;SDS011;38661;53.152;5.846;2022-09-09T15:54:22;5.93;;;3.95;;
52786;SDS011;38661;53.152;5.846;2022-09-09T15:56:53;9.43;;;4.20;;
52786;SDS011;38661;53.152;5.846;2022-09-09T15:59:24;5.93;;;4.40;;
52786;SDS011;38661;53.152;5.846;2022-09-09T16:01:52;5.32;;;4.07;;
52786;SDS011;38661;53.152;5.846;2022-09-09T16:04:20;9.18;;;4.65;;
52786;SDS011;38661;53.152;5.846;2022-09-09T16:06:50;4.45;;;4.03;;
52786;SDS011;38661;53.152;5.846;2022-09-09T16:09:17;4.28;;;3.20;;
52786;SDS011;38661;53.152;5.846;2022-09-09T16:11:43;4.47;;;2.88;;
52786;SDS011;38661;53.152;5.846;2022-09-09T16:14:09;4.72;;;3.03;;
52786;SDS011;38661;53.152;5.846;2022-09-09T16:16:36;5.43;;;3.83;;
52786;SDS011;38661;53.152;5.846;2022-09-09T16:19:06;5.82;;;2.90;;
52786;SDS011;38661;53.152;5.846;2022-09-09T16:21:42;6.70;;;4.10;;
52786;SDS011;38661;53.152;5.846;2022-09-09T16:24:10;8.43;;;3.83;;
52786;SDS011;38661;53.152;5.846;2022-09-09T16:26:38;7.70;;;3.70;;
52786;SDS011;38661;53.152;5.846;2022-09-09T16:29:08;5.75;;;3.78;;
52786;SDS011;38661;53.152;5.846;2022-09-09T16:31:33;4.22;;;2.83;;
52786;SDS011;38661;53.152;5.846;2022-09-09T16:33:59;6.93;;;3.70;;
52786;SDS011;38661;53.152;5.846;2022-09-09T16:36:26;7.78;;;4.60;;
52786;SDS011;38661;53.152;5.846;2022-09-09T16:38:57;5.97;;;3.70;;
52786;SDS011;38661;53.152;5.846;2022-09-09T16:41:25;5.95;;;3.85;;
52786;SDS011;38661;53.152;5.846;2022-09-09T16:43:55;5.78;;;4.13;;
52786;SDS011;38661;53.152;5.846;2022-09-09T16:46:22;8.07;;;3.70;;
52786;SDS011;38661;53.152;5.846;2022-09-09T16:48:49;7.03;;;4.88;;
52786;SDS011;38661;53.152;5.846;2022-09-09T16:51:22;9.27;;;6.22;;
52786;SDS011;38661;53.152;5.846;2022-09-09T16:53:50;8.43;;;5.50;;
52786;SDS011;38661;53.152;5.846;2022-09-09T16:56:18;7.40;;;5.00;;
52786;SDS011;38661;53.152;5.846;2022-09-09T16:58:54;5.97;;;4.35;;
52786;SDS011;38661;53.152;5.846;2022-09-09T17:01:22;6.88;;;4.90;;
52786;SDS011;38661;53.152;5.846;2022-09-09T17:03:52;6.75;;;4.85;;
52786;SDS011;38661;53.152;5.846;2022-09-09T17:06:21;8.65;;;5.90;;
52786;SDS011;38661;53.152;5.846;2022-09-09T17:08:47;7.50;;;5.00;;
52786;SDS011;38661;53.152;5.846;2022-09-09T17:11:18;9.05;;;5.50;;
52786;SDS011;38661;53.152;5.846;2022-09-09T17:13:44;3.70;;;2.58;;
52786;SDS011;38661;53.152;5.846;2022-09-09T17:16:12;4.03;;;2.42;;
52786;SDS011;38661;53.152;5.846;2022-09-09T17:18:39;3.55;;;3.00;;
52786;SDS011;38661;53.152;5.846;2022-09-09T17:21:06;3.22;;;2.60;;
52786;SDS011;38661;53.152;5.846;2022-09-09T17:23:39;2.85;;;2.25;;
52786;SDS011;38661;53.152;5.846;2022-09-09T17:26:06;3.70;;;2.85;;
52786;SDS011;38661;53.152;5.846;2022-09-09T17:28:35;4.20;;;3.80;;
52786;SDS011;38661;53.152;5.846;2022-09-09T17:31:03;6.22;;;4.68;;
52786;SDS011;38661;53.152;5.846;2022-09-09T17:33:32;9.23;;;4.25;;
52786;SDS011;38661;53.152;5.846;2022-09-09T17:36:00;5.50;;;4.10;;
52786;SDS011;38661;53.152;5.846;2022-09-09T17:38:28;16.65;;;6.43;;
52786;SDS011;38661;53.152;5.846;2022-09-09T17:41:01;6.15;;;4.70;;
52786;SDS011;38661;53.152;5.846;2022-09-09T17:43:28;5.45;;;4.50;;